Zhaltyr, Kazakhstan
Current Conditions -  °F | °C
As of 10:00 PM on Saturday 25 Oct 2014 (Local Time) from UACC Reporting Station
Clear Clear  
Wind Chill:   Ceiling: Unl
Heat Index: 16°   Visibility: 6mi
Dew Point: 10°   Wind: 9mph
Humidity: 79%   Direction: 220°SW
Pressure: 30"   Gusts: NA
Location:  51.62°N, 69.8°E
Report Text: UACC 251600Z 22004MPS CAVOK M09/M12 Q1016 R22/3/0060 NOSIG RMKQFE730/0974
Loading
Personal Weather Stations






























Interactive Weather Map
Tropical Storm Tracking
New forecast layout! Learn more

10-Day Weather Forecast

Advertisements
Track Severe Weather on mobile